A- A+ FrançaisEnglishEspañol中国

最近的 DTTG GabesFZNP Beni MaviviOAZI Camp BastionFZMB ButemboLFBT Tarbes-Lourdes-PyrénéesFCPP Pointe Noire Agotino Neto

飞行员的航空天气,使用METAR(气象机场报告)进行的飞行准备和TAF(终端机场预报:针对以下情况的短期天气预报)航空)。 以及其他资源,例如VAC(目视进近图)和NOTAM(通知飞行员)以进行预试飞行.

METAR, TAF, VAC, NOTAM Bowman Regional机场 (美国) / OACI KBWW/ IATA BWM

它位于附近 Bowman, Bowman 在 7.5 km, Amidon 在 35 km, Hettinger 在 54 km, Walser Crossing 在 55 km, Buffalo 在 67 km, Haynes 在 67 km, Mott 在 78 km, Baker 在 79 km, Medora 在 85 km, Dickinson 在 88 km,

机场的高度为 Bowman Regional机场的

904 m = 2966 ft

附近的机场Bowman Regional机场的

目前的天气 Bowman Regional机场的 - KBWW

ciel dégagé
-5°C

Vent 11 km/h

可提供5天天气预报 Bowman 在 7.5 km, Amidon 在 35 km, Hettinger 在 54 km, Walser Crossing 在 55 km, Buffalo 在 67 km, Haynes 在 67 km, Mott 在 78 km, Baker 在 79 km, Medora 在 85 km, Dickinson 在 88 km,

METAR Bowman Regional机场的 - KBWW

KBWW 131435Z AUTO 01006KT 10SM CLR M05/M07 A3024 RMK AO2

Bowman Regional机场METAR解码 (美国)

KBWW机场发行的METAR日期2020年03月13日至14:35 GMT. 这是一个自动生成的METAR, 警告:此METAR已过期, 已于 143 天 21 小时 13 分钟.

可见度为16.1 km = 10 sm.

温度为-5°C = 23 °F 露点为-7°C = 19 °F 。 这相当于86%的相对湿度。.

QNH是1024 hPa = 30.24 inHg

的风6 kt = 11 km/h, 风向为10°.

天空晴朗

备注 AO2

TAF Bowman Regional机场的 - KBWW

没有TAF

Bowman Regional机场的NOTAM

提供的NOTAM不能保证其时事性。 在将其用于飞行准备或在飞行期间使用之前,飞行员是唯一负责验证其有效性的人员。

没有通知

数据源